createdAt,value
2018-06-10T00:01:02.881Z,51.25
2018-06-10T00:03:36.283Z,51.49
2018-06-10T00:06:09.700Z,52.05
2018-06-10T00:08:43.086Z,52.63
2018-06-10T00:11:16.499Z,52.14
2018-06-10T00:13:49.908Z,52.89
2018-06-10T00:16:23.303Z,53.23
2018-06-10T00:18:56.953Z,52.97
2018-06-10T00:21:30.367Z,53.26
2018-06-10T00:24:03.772Z,53.43
2018-06-10T00:26:37.240Z,52.74
2018-06-10T00:29:15.866Z,52.26
2018-06-10T00:31:49.751Z,52.06
2018-06-10T00:34:23.120Z,52.06
2018-06-10T00:36:56.568Z,52.69
2018-06-10T00:39:29.987Z,52.24
2018-06-10T00:42:03.408Z,52.61
2018-06-10T00:44:36.816Z,52.48
2018-06-10T00:47:10.228Z,52.76
2018-06-10T00:49:43.612Z,52.79
2018-06-10T00:52:17.096Z,53.07
2018-06-10T00:54:50.455Z,52.68
2018-06-10T00:57:23.839Z,52.97
2018-06-10T00:59:57.240Z,52.95
2018-06-10T01:02:30.648Z,52.44
2018-06-10T01:05:04.026Z,52.54
2018-06-10T01:07:37.429Z,54.14
2018-06-10T01:10:10.820Z,53.29
2018-06-10T01:12:44.252Z,54.38
2018-06-10T01:15:17.659Z,53.99
2018-06-10T01:17:51.080Z,53.75
2018-06-10T01:20:24.455Z,54.31
2018-06-10T01:22:57.899Z,53.96
2018-06-10T01:25:31.301Z,54.45
2018-06-10T01:28:04.715Z,53.95
2018-06-10T01:30:38.100Z,54.36
2018-06-10T01:33:11.495Z,53.56
2018-06-10T01:35:44.890Z,54.49
2018-06-10T01:38:18.285Z,54.30
2018-06-10T01:40:51.664Z,54.01
2018-06-10T01:43:25.058Z,54.09
2018-06-10T01:45:58.452Z,53.39
2018-06-10T01:48:31.856Z,54.84
2018-06-10T01:51:05.298Z,54.52
2018-06-10T01:53:38.732Z,54.29
2018-06-10T01:56:12.107Z,54.45
2018-06-10T01:58:45.504Z,54.32
2018-06-10T02:01:18.911Z,54.94
2018-06-10T02:03:52.307Z,54.91
2018-06-10T02:06:26.010Z,54.38
2018-06-10T02:08:59.429Z,54.80
2018-06-10T02:11:32.837Z,54.67
2018-06-10T02:14:06.285Z,55.01
2018-06-10T02:16:39.680Z,54.85
2018-06-10T02:19:13.124Z,54.61
2018-06-10T02:21:46.552Z,54.89
2018-06-10T02:24:19.959Z,55.61
2018-06-10T02:26:53.336Z,55.82
2018-06-10T02:29:26.771Z,55.27
2018-06-10T02:32:00.145Z,55.38
2018-06-10T02:34:33.547Z,55.39
2018-06-10T02:37:06.931Z,55.46
2018-06-10T02:39:40.323Z,55.65
2018-06-10T02:42:13.710Z,55.62
2018-06-10T02:44:47.138Z,56.04
2018-06-10T02:47:20.543Z,55.55
2018-06-10T02:49:53.948Z,56.05
2018-06-10T02:52:27.429Z,55.82
2018-06-10T02:55:00.841Z,56.19
2018-06-10T02:57:34.240Z,55.99
2018-06-10T03:00:07.665Z,55.65
2018-06-10T03:02:41.052Z,56.97
2018-06-10T03:05:14.461Z,56.32
2018-06-10T03:07:47.943Z,56.18
2018-06-10T03:10:21.280Z,55.88
2018-06-10T03:12:54.692Z,56.17
2018-06-10T03:15:28.108Z,56.21
2018-06-10T03:18:01.528Z,56.06
2018-06-10T03:20:34.931Z,56.40
2018-06-10T03:23:08.316Z,56.93
2018-06-10T03:25:41.707Z,56.78
2018-06-10T03:28:15.119Z,56.40
2018-06-10T03:30:48.510Z,56.85
2018-06-10T03:33:21.914Z,57.01
2018-06-10T03:35:55.317Z,57.24
2018-06-10T03:38:28.721Z,56.82
2018-06-10T03:41:02.292Z,57.45
2018-06-10T03:43:35.709Z,57.15
2018-06-10T03:46:09.109Z,57.49
2018-06-10T03:48:42.542Z,57.26
2018-06-10T03:51:15.919Z,57.09
2018-06-10T03:53:49.331Z,57.41
2018-06-10T03:56:22.711Z,57.41
2018-06-10T03:58:56.181Z,57.01
2018-06-10T04:01:29.655Z,57.03
2018-06-10T04:04:03.052Z,57.14
2018-06-10T04:06:36.487Z,57.53
2018-06-10T04:09:09.888Z,57.79
2018-06-10T04:11:43.298Z,57.57
2018-06-10T04:14:16.725Z,57.59
2018-06-10T04:16:50.105Z,57.50
2018-06-10T04:19:23.542Z,57.94
2018-06-10T04:21:56.963Z,57.94
2018-06-10T04:24:30.370Z,57.54
2018-06-10T04:27:03.748Z,58.11
2018-06-10T04:29:37.172Z,58.27
2018-06-10T04:32:10.548Z,58.36
2018-06-10T04:34:43.957Z,57.94
2018-06-10T04:37:17.347Z,58.16
2018-06-10T04:39:50.767Z,57.62
2018-06-10T04:42:24.152Z,57.98
2018-06-10T04:44:57.630Z,57.43
2018-06-10T04:47:31.003Z,57.40
2018-06-10T04:50:04.419Z,57.02
2018-06-10T04:52:37.804Z,57.54
2018-06-10T04:55:11.212Z,57.25
2018-06-10T04:57:44.615Z,57.50
2018-06-10T05:00:18.069Z,56.73
2018-06-10T05:02:51.475Z,56.50
2018-06-10T05:05:24.876Z,56.14
2018-06-10T05:07:58.280Z,55.50
2018-06-10T05:10:31.666Z,54.11
2018-06-10T05:13:05.087Z,54.02
2018-06-10T05:15:38.531Z,53.10
2018-06-10T05:18:11.927Z,53.64
2018-06-10T05:20:46.185Z,52.97
2018-06-10T05:23:19.786Z,53.60
2018-06-10T05:25:53.458Z,53.48
2018-06-10T05:28:26.895Z,52.74
2018-06-10T05:31:00.307Z,52.42
2018-06-10T05:33:33.701Z,52.81
2018-06-10T05:36:07.114Z,52.05
2018-06-10T05:38:40.491Z,52.11
2018-06-10T05:41:13.862Z,52.15
2018-06-10T05:43:47.245Z,52.24
2018-06-10T05:46:21.039Z,51.59
2018-06-10T05:48:54.447Z,50.48
2018-06-10T05:51:27.938Z,51.59
2018-06-10T05:54:01.425Z,51.02
2018-06-10T05:56:34.853Z,51.81
2018-06-10T05:59:08.532Z,50.26
2018-06-10T06:01:41.953Z,50.62
2018-06-10T06:04:15.472Z,51.02
2018-06-10T06:06:48.897Z,51.19
2018-06-10T06:09:22.317Z,52.52
2018-06-10T06:11:55.796Z,51.58
2018-06-10T06:14:29.221Z,51.14
2018-06-10T06:17:02.618Z,50.45
2018-06-10T06:19:35.998Z,51.02
2018-06-10T06:22:09.399Z,49.97
2018-06-10T06:24:42.770Z,50.40
2018-06-10T06:27:16.178Z,49.79
2018-06-10T06:29:49.568Z,49.08
2018-06-10T06:32:22.940Z,50.00
2018-06-10T06:34:56.344Z,48.60
2018-06-10T06:37:29.743Z,48.07
2018-06-10T06:40:03.180Z,49.41
2018-06-10T06:42:36.618Z,49.04
2018-06-10T06:45:10.003Z,47.85
2018-06-10T06:47:43.400Z,47.65
2018-06-10T06:50:16.808Z,47.39
2018-06-10T06:52:50.237Z,47.52
2018-06-10T06:55:23.661Z,48.04
2018-06-10T06:57:57.166Z,47.16
2018-06-10T07:00:30.517Z,47.05
2018-06-10T07:03:03.899Z,47.41
2018-06-10T07:05:37.296Z,47.42
2018-06-10T07:08:10.661Z,46.86
2018-06-10T07:10:44.029Z,47.09
2018-06-10T07:13:17.403Z,47.55
2018-06-10T07:15:50.821Z,48.86
2018-06-10T07:18:24.192Z,48.16
2018-06-10T07:20:58.404Z,47.45
2018-06-10T07:23:31.768Z,48.59
2018-06-10T07:26:05.184Z,47.64
2018-06-10T07:28:38.593Z,48.29
2018-06-10T07:31:12.002Z,48.89
2018-06-10T07:33:45.421Z,47.80
2018-06-10T07:36:18.820Z,48.53
2018-06-10T07:38:52.185Z,47.33
2018-06-10T07:41:25.612Z,47.82
2018-06-10T07:43:58.992Z,47.05
2018-06-10T07:46:32.379Z,48.17
2018-06-10T07:49:05.792Z,47.85
2018-06-10T07:51:39.191Z,49.94
2018-06-10T07:54:12.567Z,46.85
2018-06-10T07:56:45.969Z,47.06
2018-06-10T07:59:19.410Z,45.57
2018-06-10T08:01:52.832Z,45.41
2018-06-10T08:04:26.231Z,45.95
2018-06-10T08:06:59.669Z,45.34
2018-06-10T08:09:33.097Z,45.00
2018-06-10T08:12:06.543Z,45.31
2018-06-10T08:14:39.971Z,45.15
2018-06-10T08:17:13.393Z,44.37
2018-06-10T08:19:46.781Z,45.01
2018-06-10T08:22:20.213Z,44.76
2018-06-10T08:24:53.616Z,43.93
2018-06-10T08:27:27.054Z,42.51
2018-06-10T08:30:00.470Z,44.22
2018-06-10T08:32:34.170Z,43.89
2018-06-10T08:35:07.633Z,43.39
2018-06-10T08:37:41.007Z,42.95
2018-06-10T08:40:14.378Z,42.68
2018-06-10T08:42:47.791Z,41.30
2018-06-10T08:45:21.180Z,41.78
2018-06-10T08:47:54.585Z,41.92
2018-06-10T08:50:28.083Z,41.84
2018-06-10T08:53:02.071Z,42.49
2018-06-10T08:55:35.494Z,43.26
2018-06-10T08:58:09.037Z,42.04
2018-06-10T09:00:42.467Z,41.87
2018-06-10T09:03:15.857Z,41.63
2018-06-10T09:05:49.245Z,40.82
2018-06-10T09:08:22.638Z,40.53
2018-06-10T09:10:56.001Z,40.38
2018-06-10T09:13:29.439Z,40.81
2018-06-10T09:16:02.836Z,40.26
2018-06-10T09:18:36.222Z,40.28
2018-06-10T09:21:09.608Z,40.00
2018-06-10T09:23:43.007Z,40.66
2018-06-10T09:26:16.407Z,40.96
2018-06-10T09:28:49.874Z,41.52
2018-06-10T09:31:23.231Z,40.38
2018-06-10T09:33:56.644Z,39.79
2018-06-10T09:36:30.025Z,39.82
2018-06-10T09:39:03.701Z,39.89
2018-06-10T09:41:37.068Z,40.21
2018-06-10T09:44:10.472Z,40.98
2018-06-10T09:46:43.877Z,41.11
2018-06-10T09:49:17.279Z,41.42
2018-06-10T09:51:50.685Z,40.15
2018-06-10T09:54:24.069Z,41.27
2018-06-10T09:56:57.468Z,40.60
2018-06-10T09:59:30.863Z,39.94
2018-06-10T10:02:04.260Z,41.94
2018-06-10T10:04:37.683Z,41.64
2018-06-10T10:07:11.129Z,38.40
2018-06-10T10:09:44.509Z,39.10
2018-06-10T10:12:17.889Z,38.18
2018-06-10T10:14:51.267Z,39.00
2018-06-10T10:17:24.698Z,38.74
2018-06-10T10:19:58.107Z,38.94
2018-06-10T10:22:31.511Z,38.47
2018-06-10T10:25:04.912Z,38.50
2018-06-10T10:27:38.332Z,39.08
2018-06-10T10:30:11.731Z,40.44
2018-06-10T10:32:45.188Z,39.23
2018-06-10T10:35:18.564Z,39.95
2018-06-10T10:37:51.946Z,40.83
2018-06-10T10:40:25.326Z,41.02
2018-06-10T10:42:58.751Z,41.65
2018-06-10T10:45:32.113Z,41.80
2018-06-10T10:48:05.494Z,41.50
2018-06-10T10:50:38.869Z,40.79
2018-06-10T10:53:12.240Z,41.57
2018-06-10T10:55:45.623Z,41.79
2018-06-10T10:58:19.004Z,42.31
2018-06-10T11:00:52.380Z,41.83
2018-06-10T11:03:25.811Z,41.99
2018-06-10T11:05:59.170Z,42.57
2018-06-10T11:08:32.567Z,42.87
2018-06-10T11:11:05.971Z,42.61
2018-06-10T11:13:39.399Z,42.67
2018-06-10T11:16:12.764Z,42.56
2018-06-10T11:18:46.148Z,42.37
2018-06-10T11:21:19.500Z,42.98
2018-06-10T11:23:52.858Z,43.72
2018-06-10T11:26:26.295Z,43.13
2018-06-10T11:28:59.692Z,42.76
2018-06-10T11:31:33.318Z,43.13
2018-06-10T11:34:06.797Z,43.65
2018-06-10T11:36:40.165Z,44.00
2018-06-10T11:39:13.567Z,44.13
2018-06-10T11:41:46.917Z,43.17
2018-06-10T11:44:20.297Z,42.59
2018-06-10T11:46:54.166Z,43.51
2018-06-10T11:49:27.706Z,43.62
2018-06-10T11:52:01.140Z,42.23
2018-06-10T11:54:34.552Z,43.00
2018-06-10T11:57:07.912Z,42.82
2018-06-10T11:59:41.328Z,43.18
2018-06-10T12:02:14.703Z,42.99
2018-06-10T12:04:48.122Z,43.00
2018-06-10T12:07:21.471Z,43.19
2018-06-10T12:09:54.859Z,43.10
2018-06-10T12:12:28.387Z,43.91
2018-06-10T12:15:01.940Z,45.49
2018-06-10T12:17:35.325Z,44.21
2018-06-10T12:20:08.720Z,43.75
2018-06-10T12:22:42.143Z,43.68
2018-06-10T12:25:15.632Z,43.82
2018-06-10T12:27:49.020Z,44.10
2018-06-10T12:30:22.406Z,43.56
2018-06-10T12:32:56.603Z,43.05
2018-06-10T12:35:30.042Z,42.50
2018-06-10T12:38:03.443Z,43.69
2018-06-10T12:40:36.832Z,43.22
2018-06-10T12:43:10.201Z,42.63
2018-06-10T12:45:43.588Z,43.36
2018-06-10T12:48:16.993Z,44.16
2018-06-10T12:50:50.379Z,43.75
2018-06-10T12:53:23.753Z,44.88
2018-06-10T12:55:57.207Z,45.33
2018-06-10T12:58:30.592Z,45.35
2018-06-10T13:01:04.025Z,46.25
2018-06-10T13:03:37.444Z,47.06
2018-06-10T13:06:10.847Z,46.29
2018-06-10T13:08:44.211Z,46.31
2018-06-10T13:11:17.619Z,47.31
2018-06-10T13:13:51.024Z,46.50
2018-06-10T13:16:24.396Z,46.17
2018-06-10T13:18:57.859Z,46.39
2018-06-10T13:21:31.266Z,46.31
2018-06-10T13:24:04.656Z,46.79
2018-06-10T13:26:38.064Z,46.23
2018-06-10T13:29:11.424Z,48.26
2018-06-10T13:31:44.826Z,47.48
2018-06-10T13:34:18.177Z,49.21
2018-06-10T13:36:51.592Z,47.81
2018-06-10T13:39:25.002Z,48.41
2018-06-10T13:41:58.375Z,47.62
2018-06-10T13:44:31.757Z,47.75
2018-06-10T13:47:05.159Z,48.54
2018-06-10T13:49:38.619Z,48.21
2018-06-10T13:52:11.991Z,49.72
2018-06-10T13:54:45.423Z,49.64
2018-06-10T13:57:18.778Z,49.12
2018-06-10T13:59:52.170Z,49.96
2018-06-10T14:02:25.564Z,50.31
2018-06-10T14:04:58.944Z,50.40
2018-06-10T14:07:32.309Z,50.24
2018-06-10T14:10:05.698Z,50.31
2018-06-10T14:12:39.050Z,50.54
2018-06-10T14:15:12.518Z,48.69
2018-06-10T14:17:46.916Z,48.62
2018-06-10T14:20:20.302Z,48.75
2018-06-10T14:22:53.705Z,49.01
2018-06-10T14:25:27.111Z,48.92
2018-06-10T14:28:00.533Z,50.81
2018-06-10T14:30:33.930Z,49.68
2018-06-10T14:33:07.310Z,49.05
2018-06-10T14:35:40.706Z,50.02
2018-06-10T14:38:20.445Z,51.42
2018-06-10T14:40:53.850Z,50.06
2018-06-10T14:43:27.236Z,49.54
2018-06-10T14:46:00.614Z,49.66
2018-06-10T14:48:33.962Z,48.79
2018-06-10T14:51:07.346Z,48.77
2018-06-10T14:53:40.711Z,49.29
2018-06-10T14:56:14.097Z,48.54
2018-06-10T14:58:47.462Z,49.46
2018-06-10T15:01:20.853Z,49.29
2018-06-10T15:03:54.238Z,48.60
2018-06-10T15:06:28.161Z,48.39
2018-06-10T15:09:01.506Z,48.23
2018-06-10T15:11:34.881Z,48.48
2018-06-10T15:14:08.313Z,48.27
2018-06-10T15:16:41.693Z,47.95
2018-06-10T15:19:15.063Z,46.75
2018-06-10T15:21:48.450Z,47.54
2018-06-10T15:24:21.844Z,46.31
2018-06-10T15:26:55.249Z,46.28
2018-06-10T15:29:28.638Z,46.13
2018-06-10T15:32:02.117Z,47.04
2018-06-10T15:34:35.539Z,47.46
2018-06-10T15:37:08.942Z,46.99
2018-06-10T15:39:42.334Z,46.09
2018-06-10T15:42:15.746Z,46.31
2018-06-10T15:44:49.125Z,46.05
2018-06-10T15:47:22.624Z,46.35
2018-06-10T15:49:56.024Z,47.24
2018-06-10T15:52:29.469Z,46.93
2018-06-10T15:55:02.853Z,47.23
2018-06-10T15:57:36.241Z,47.05
2018-06-10T16:00:09.677Z,47.53
2018-06-10T16:02:43.065Z,47.51
2018-06-10T16:05:16.511Z,47.21
2018-06-10T16:07:49.898Z,46.15
2018-06-10T16:10:23.306Z,47.22
2018-06-10T16:12:56.796Z,47.04
2018-06-10T16:15:30.192Z,47.39
2018-06-10T16:18:03.597Z,46.61
2018-06-10T16:20:36.985Z,46.85
2018-06-10T16:23:10.384Z,46.10
2018-06-10T16:25:43.781Z,46.59
2018-06-10T16:28:17.187Z,46.05
2018-06-10T16:30:50.581Z,46.18
2018-06-10T16:33:23.982Z,46.05
2018-06-10T16:35:57.420Z,46.87
2018-06-10T16:38:30.851Z,46.38
2018-06-10T16:41:04.428Z,47.21
2018-06-10T16:43:37.884Z,47.36
2018-06-10T16:46:11.247Z,46.68
2018-06-10T16:48:44.673Z,45.98
2018-06-10T16:51:18.094Z,46.39
2018-06-10T16:53:51.484Z,46.17
2018-06-10T16:56:24.878Z,46.34
2018-06-10T16:58:58.377Z,46.26
2018-06-10T17:01:31.789Z,46.72
2018-06-10T17:04:05.187Z,46.57
2018-06-10T17:06:38.607Z,46.38
2018-06-10T17:09:11.959Z,45.73
2018-06-10T17:11:45.380Z,45.50
2018-06-10T17:14:18.764Z,46.39
2018-06-10T17:16:52.132Z,45.95
2018-06-10T17:19:25.551Z,45.74
2018-06-10T17:21:58.931Z,45.72
2018-06-10T17:24:32.396Z,46.53
2018-06-10T17:27:05.761Z,46.01
2018-06-10T17:29:39.120Z,45.73
2018-06-10T17:32:12.499Z,45.58
2018-06-10T17:34:45.926Z,45.89
2018-06-10T17:37:19.259Z,45.81
2018-06-10T17:39:52.634Z,46.91
2018-06-10T17:42:26.035Z,46.43
2018-06-10T17:44:59.425Z,46.36
2018-06-10T17:47:32.881Z,46.93
2018-06-10T17:50:06.188Z,46.94
2018-06-10T17:52:39.569Z,46.41
2018-06-10T17:55:12.941Z,46.98
2018-06-10T17:57:46.320Z,46.39
2018-06-10T18:00:19.724Z,46.88
2018-06-10T18:02:53.121Z,47.40
2018-06-10T18:05:26.495Z,47.21
2018-06-10T18:07:59.883Z,47.67
2018-06-10T18:10:33.244Z,48.30
2018-06-10T18:13:06.661Z,48.82
2018-06-10T18:15:40.061Z,48.73
2018-06-10T18:18:13.448Z,48.95
2018-06-10T18:20:46.830Z,48.94
2018-06-10T18:23:20.236Z,48.82
2018-06-10T18:25:53.575Z,48.86
2018-06-10T18:28:27.007Z,48.84
2018-06-10T18:31:00.388Z,49.51
2018-06-10T18:33:33.790Z,49.33
2018-06-10T18:36:07.143Z,49.47
2018-06-10T18:38:40.553Z,49.02
2018-06-10T18:41:13.912Z,49.06
2018-06-10T18:43:47.322Z,48.88
2018-06-10T18:46:20.694Z,49.06
2018-06-10T18:48:54.065Z,49.01
2018-06-10T18:51:27.482Z,48.92
2018-06-10T18:54:00.865Z,49.64
2018-06-10T18:56:34.212Z,49.33
2018-06-10T18:59:07.584Z,49.25
2018-06-10T19:01:40.947Z,50.12
2018-06-10T19:04:14.360Z,49.66
2018-06-10T19:06:47.720Z,49.57
2018-06-10T19:09:21.104Z,49.40
2018-06-10T19:11:54.488Z,49.88
2018-06-10T19:14:27.922Z,50.11
2018-06-10T19:17:01.287Z,49.53
2018-06-10T19:19:34.668Z,49.88
2018-06-10T19:22:08.051Z,49.83
2018-06-10T19:24:41.471Z,49.53
2018-06-10T19:27:14.819Z,50.22
2018-06-10T19:29:48.205Z,49.66
2018-06-10T19:32:21.569Z,49.61
2018-06-10T19:34:55.021Z,49.79
2018-06-10T19:37:28.372Z,49.50
2018-06-10T19:40:01.777Z,49.85
2018-06-10T19:42:35.135Z,49.77
2018-06-10T19:45:08.508Z,50.06
2018-06-10T19:47:41.861Z,50.11
2018-06-10T19:50:15.262Z,50.51
2018-06-10T19:52:48.652Z,50.06
2018-06-10T19:55:22.025Z,50.05
2018-06-10T19:57:55.411Z,50.31
2018-06-10T20:00:28.822Z,50.75
2018-06-10T20:03:02.197Z,51.05
2018-06-10T20:05:35.590Z,51.36
2018-06-10T20:08:08.971Z,51.36
2018-06-10T20:10:42.362Z,50.74
2018-06-10T20:13:16.171Z,51.18
2018-06-10T20:15:49.666Z,51.58
2018-06-10T20:18:23.114Z,51.58
2018-06-10T20:20:56.504Z,52.19
2018-06-10T20:23:29.880Z,52.03
2018-06-10T20:26:03.277Z,52.11
2018-06-10T20:28:36.641Z,52.27
2018-06-10T20:31:10.086Z,52.41
2018-06-10T20:33:43.521Z,52.83
2018-06-10T20:36:16.927Z,52.43
2018-06-10T20:38:50.431Z,52.86
2018-06-10T20:41:23.791Z,53.15
2018-06-10T20:43:57.180Z,52.76
2018-06-10T20:46:30.914Z,52.72
2018-06-10T20:49:04.311Z,53.17
2018-06-10T20:51:37.670Z,53.64
2018-06-10T20:54:11.076Z,53.61
2018-06-10T20:56:44.443Z,53.51
2018-06-10T20:59:17.838Z,53.54
2018-06-10T21:01:51.203Z,54.25
2018-06-10T21:04:24.584Z,53.74
2018-06-10T21:06:58.024Z,54.03
2018-06-10T21:09:31.394Z,54.48
2018-06-10T21:12:04.768Z,54.27
2018-06-10T21:14:38.181Z,54.44
2018-06-10T21:17:11.570Z,54.65
2018-06-10T21:19:44.948Z,55.03
2018-06-10T21:22:18.297Z,55.07
2018-06-10T21:24:51.700Z,55.48
2018-06-10T21:27:25.083Z,55.18
2018-06-10T21:29:58.651Z,55.29
2018-06-10T21:32:31.996Z,55.67
2018-06-10T21:35:05.386Z,55.71
2018-06-10T21:37:38.761Z,55.27
2018-06-10T21:40:12.150Z,55.59
2018-06-10T21:42:45.500Z,55.11
2018-06-10T21:45:18.888Z,55.75
2018-06-10T21:47:52.245Z,56.31
2018-06-10T21:50:25.631Z,56.17
2018-06-10T21:52:58.998Z,56.25
2018-06-10T21:55:32.405Z,56.50
2018-06-10T21:58:05.775Z,56.77
2018-06-10T22:00:39.173Z,56.67
2018-06-10T22:03:12.604Z,56.39
2018-06-10T22:05:45.995Z,56.79
2018-06-10T22:08:19.340Z,56.32
2018-06-10T22:10:52.744Z,56.44
2018-06-10T22:13:26.138Z,56.81
2018-06-10T22:15:59.652Z,56.43
2018-06-10T22:18:33.019Z,56.64
2018-06-10T22:21:06.449Z,56.51
2018-06-10T22:23:39.811Z,57.27
2018-06-10T22:26:13.207Z,57.69
2018-06-10T22:28:46.571Z,56.82
2018-06-10T22:31:19.994Z,57.04
2018-06-10T22:33:53.392Z,58.22
2018-06-10T22:36:27.140Z,57.40
2018-06-10T22:39:00.508Z,57.39
2018-06-10T22:41:33.885Z,57.28
2018-06-10T22:44:07.260Z,56.78
2018-06-10T22:46:40.662Z,56.87
2018-06-10T22:49:14.058Z,56.87
2018-06-10T22:51:47.457Z,57.32
2018-06-10T22:54:52.719Z,57.68
2018-06-10T22:57:26.152Z,57.76
2018-06-10T22:59:59.529Z,58.03
2018-06-10T23:02:32.929Z,57.65
2018-06-10T23:05:06.332Z,57.31
2018-06-10T23:07:39.721Z,57.86
2018-06-10T23:10:13.105Z,58.39
2018-06-10T23:12:46.500Z,57.76
2018-06-10T23:15:19.891Z,57.98
2018-06-10T23:17:53.273Z,58.93
2018-06-10T23:20:26.960Z,59.07
2018-06-10T23:23:00.314Z,60.00
2018-06-10T23:25:33.693Z,59.04
2018-06-10T23:28:07.062Z,59.29
2018-06-10T23:30:41.394Z,59.28
2018-06-10T23:33:15.594Z,59.63
2018-06-10T23:35:50.052Z,59.63
2018-06-10T23:38:24.453Z,59.56
2018-06-10T23:40:58.820Z,59.50
2018-06-10T23:43:33.093Z,59.34
2018-06-10T23:46:07.342Z,59.60
2018-06-10T23:48:40.718Z,59.25
2018-06-10T23:51:14.104Z,59.51
2018-06-10T23:53:47.463Z,59.21
2018-06-10T23:56:20.842Z,59.64
2018-06-10T23:58:54.202Z,59.29
